Time;durP1;ratioP1;P1;durP2;ratioP2;P2;SDS_P1;SDS_P2;PMS_P1;PMS_P2;Temp;Humidity;BMP_temperature;BMP_pressure;BME280_temperature;BME280_humidity;BME280_pressure;Samples;Min_cycle;Max_cycle;Signal;HPM_P1;HPM_P2
2023/09/29 00:00:16;;;;;;;11.48;7.65;;;;;;;;;;5060290;28;20022;-67
2023/09/29 00:02:41;;;;;;;11.75;7.45;;;;;;;;;;5057319;28;20028;-67
2023/09/29 00:05:15;;;;;;;11.60;7.05;;;;;;;;;;5063207;28;20078;-66
2023/09/29 00:07:40;;;;;;;13.32;7.57;;;;;;;;;;5069415;28;20030;-68
2023/09/29 00:10:08;;;;;;;9.90;7.57;;;;;;;;;;5063307;28;20021;-66
2023/09/29 00:12:34;;;;;;;10.48;7.47;;;;;;;;;;5053279;28;20039;-68
2023/09/29 00:14:59;;;;;;;13.57;8.05;;;;;;;;;;5061199;28;20037;-68
2023/09/29 00:17:24;;;;;;;11.87;7.67;;;;;;;;;;5068340;28;20086;-67
2023/09/29 00:19:49;;;;;;;14.77;7.67;;;;;;;;;;5052426;28;20035;-68
2023/09/29 00:22:14;;;;;;;12.13;7.70;;;;;;;;;;5069504;28;20012;-66
2023/09/29 00:24:40;;;;;;;9.30;7.30;;;;;;;;;;5051563;28;20247;-67
2023/09/29 00:27:05;;;;;;;10.07;6.87;;;;;;;;;;5053660;28;20269;-67
2023/09/29 00:29:38;;;;;;;14.03;7.93;;;;;;;;;;5054126;28;20460;-69
2023/09/29 00:32:03;;;;;;;9.60;7.38;;;;;;;;;;5058964;28;20023;-68
2023/09/29 00:34:28;;;;;;;11.70;6.93;;;;;;;;;;5065998;28;20514;-67
2023/09/29 00:36:53;;;;;;;10.47;7.53;;;;;;;;;;5074562;28;20027;-65
2023/09/29 00:39:21;;;;;;;10.82;7.45;;;;;;;;;;5051052;28;20023;-66
2023/09/29 00:41:46;;;;;;;13.93;6.93;;;;;;;;;;5059904;28;20020;-66
2023/09/29 00:44:14;;;;;;;12.68;7.57;;;;;;;;;;5070747;28;20481;-68
2023/09/29 00:46:45;;;;;;;11.02;7.70;;;;;;;;;;5069037;28;20019;-67
2023/09/29 00:49:14;;;;;;;10.95;7.28;;;;;;;;;;5065603;28;20024;-68
2023/09/29 00:51:39;;;;;;;13.18;7.57;;;;;;;;;;5063014;28;20070;-67
2023/09/29 00:54:08;;;;;;;10.65;7.13;;;;;;;;;;5066678;28;20020;-67
2023/09/29 00:56:36;;;;;;;10.20;7.40;;;;;;;;;;5056188;28;20115;-67
2023/09/29 00:59:05;;;;;;;13.90;7.72;;;;;;;;;;5079895;28;20127;-67
2023/09/29 01:01:30;;;;;;;9.52;7.07;;;;;;;;;;5077757;28;20567;-65
2023/09/29 01:03:56;;;;;;;12.27;7.25;;;;;;;;;;5096821;28;20106;-66
2023/09/29 01:06:21;;;;;;;11.68;7.35;;;;;;;;;;5058108;28;20020;-67
2023/09/29 01:08:47;;;;;;;11.43;7.70;;;;;;;;;;5067137;28;20028;-68
2023/09/29 01:11:12;;;;;;;14.30;7.07;;;;;;;;;;5075891;28;20250;-66
2023/09/29 01:13:40;;;;;;;10.17;6.83;;;;;;;;;;5082533;28;20098;-66
2023/09/29 01:16:06;;;;;;;16.48;7.18;;;;;;;;;;5076122;28;20024;-67
2023/09/29 01:18:34;;;;;;;11.30;7.13;;;;;;;;;;5050628;28;20016;-65
2023/09/29 01:21:03;;;;;;;12.20;7.28;;;;;;;;;;5071976;28;20115;-67
2023/09/29 01:23:29;;;;;;;11.68;7.35;;;;;;;;;;5056285;28;20434;-67
2023/09/29 01:25:55;;;;;;;9.65;6.78;;;;;;;;;;5079670;28;20036;-67
2023/09/29 01:28:20;;;;;;;10.15;7.70;;;;;;;;;;5062481;28;20334;-67
2023/09/29 01:30:45;;;;;;;11.50;7.17;;;;;;;;;;5060453;28;20023;-68
2023/09/29 01:33:12;;;;;;;12.23;7.13;;;;;;;;;;5062467;28;20643;-66
2023/09/29 01:35:43;;;;;;;12.80;7.57;;;;;;;;;;5058799;28;20023;-66
2023/09/29 01:38:11;;;;;;;9.05;6.93;;;;;;;;;;5074980;28;20016;-67
2023/09/29 01:40:36;;;;;;;11.38;7.78;;;;;;;;;;5062105;28;20139;-66
2023/09/29 01:43:02;;;;;;;11.23;7.22;;;;;;;;;;5072571;28;20533;-66
2023/09/29 01:45:27;;;;;;;9.38;7.28;;;;;;;;;;5053565;28;20071;-65
2023/09/29 01:47:54;;;;;;;9.68;7.68;;;;;;;;;;5067785;28;20506;-65
2023/09/29 01:50:20;;;;;;;11.60;7.70;;;;;;;;;;5069644;28;20016;-67
2023/09/29 01:52:46;;;;;;;11.15;7.10;;;;;;;;;;5074103;28;20024;-68
2023/09/29 01:55:19;;;;;;;13.30;7.20;;;;;;;;;;5059465;28;20016;-65
2023/09/29 01:57:45;;;;;;;12.20;7.20;;;;;;;;;;5059679;28;20036;-67
2023/09/29 02:00:20;;;;;;;11.23;7.75;;;;;;;;;;5071926;28;20039;-67
2023/09/29 02:02:48;;;;;;;9.77;7.60;;;;;;;;;;5068310;28;20052;-67
2023/09/29 02:05:16;;;;;;;13.32;7.28;;;;;;;;;;5054933;28;20030;-65
2023/09/29 02:07:44;;;;;;;11.63;6.60;;;;;;;;;;5059414;28;20863;-67
2023/09/29 02:10:10;;;;;;;9.80;6.80;;;;;;;;;;5058173;28;20099;-67
2023/09/29 02:12:48;;;;;;;13.77;7.18;;;;;;;;;;5086119;28;20095;-68
2023/09/29 02:15:15;;;;;;;9.15;6.70;;;;;;;;;;5082391;28;20104;-67
2023/09/29 02:17:40;;;;;;;13.32;6.82;;;;;;;;;;5062513;28;20031;-67
2023/09/29 02:20:14;;;;;;;10.63;5.93;;;;;;;;;;5062497;28;20554;-68
2023/09/29 02:22:39;;;;;;;11.10;6.70;;;;;;;;;;5058793;28;20020;-67
2023/09/29 02:25:09;;;;;;;11.65;7.38;;;;;;;;;;5070905;28;20100;-67
2023/09/29 02:27:36;;;;;;;10.35;7.15;;;;;;;;;;5073506;28;20069;-67
2023/09/29 02:30:03;;;;;;;9.57;6.63;;;;;;;;;;5073188;28;20044;-65
2023/09/29 02:32:31;;;;;;;8.93;6.45;;;;;;;;;;5061566;28;20077;-67
2023/09/29 02:34:56;;;;;;;9.40;6.50;;;;;;;;;;5071790;28;20016;-67
2023/09/29 02:37:21;;;;;;;9.13;6.97;;;;;;;;;;5062424;28;20396;-67
2023/09/29 02:39:47;;;;;;;12.20;7.23;;;;;;;;;;5076968;28;20277;-67
2023/09/29 02:42:12;;;;;;;12.63;7.32;;;;;;;;;;5078191;28;20561;-65
2023/09/29 02:44:38;;;;;;;9.43;7.17;;;;;;;;;;5075596;28;20044;-67
2023/09/29 02:47:05;;;;;;;10.98;7.03;;;;;;;;;;5068278;28;20370;-66
2023/09/29 02:49:33;;;;;;;9.98;6.72;;;;;;;;;;5077482;28;20012;-67
2023/09/29 02:51:58;;;;;;;10.85;7.03;;;;;;;;;;5056726;28;20564;-66
2023/09/29 02:54:25;;;;;;;13.23;7.65;;;;;;;;;;5058172;28;20008;-67
2023/09/29 02:56:50;;;;;;;10.90;7.05;;;;;;;;;;5048284;28;20580;-66
2023/09/29 02:59:20;;;;;;;10.10;7.35;;;;;;;;;;5051945;28;20072;-66
2023/09/29 03:01:49;;;;;;;10.13;7.32;;;;;;;;;;5049085;28;20024;-67
2023/09/29 03:04:15;;;;;;;11.98;7.35;;;;;;;;;;5051680;28;20058;-66
2023/09/29 03:06:40;;;;;;;8.73;6.35;;;;;;;;;;5071635;28;20390;-66
2023/09/29 03:09:10;;;;;;;12.43;7.17;;;;;;;;;;5059330;28;20020;-66
2023/09/29 03:11:43;;;;;;;10.10;7.57;;;;;;;;;;5084952;28;20249;-69
2023/09/29 03:14:08;;;;;;;12.63;7.90;;;;;;;;;;5050905;28;20047;-68
2023/09/29 03:16:35;;;;;;;12.88;7.35;;;;;;;;;;5054197;28;20119;-65
2023/09/29 03:19:01;;;;;;;10.10;7.05;;;;;;;;;;5069729;28;20081;-67
2023/09/29 03:21:26;;;;;;;12.93;7.50;;;;;;;;;;5055148;28;20067;-67
2023/09/29 03:23:54;;;;;;;9.97;7.20;;;;;;;;;;5052154;28;20725;-66
2023/09/29 03:26:22;;;;;;;12.75;7.97;;;;;;;;;;5069576;28;20360;-66
2023/09/29 03:28:47;;;;;;;12.40;7.57;;;;;;;;;;5055105;28;20016;-67
2023/09/29 03:31:13;;;;;;;12.60;7.05;;;;;;;;;;5046399;28;20530;-64
2023/09/29 03:33:38;;;;;;;10.00;7.20;;;;;;;;;;5063518;28;20023;-67
2023/09/29 03:36:03;;;;;;;9.75;6.85;;;;;;;;;;5065935;28;20274;-66
2023/09/29 03:38:29;;;;;;;12.60;7.28;;;;;;;;;;5066438;28;20023;-65
2023/09/29 03:40:56;;;;;;;12.23;7.47;;;;;;;;;;5044828;28;20018;-66
2023/09/29 03:43:23;;;;;;;10.88;7.35;;;;;;;;;;5064668;28;20095;-66
2023/09/29 03:45:49;;;;;;;12.70;7.40;;;;;;;;;;5066026;28;20078;-66
2023/09/29 03:48:15;;;;;;;13.15;7.97;;;;;;;;;;5058200;28;20048;-66
2023/09/29 03:50:43;;;;;;;10.93;7.72;;;;;;;;;;5083214;28;20035;-67
2023/09/29 03:53:08;;;;;;;11.10;7.40;;;;;;;;;;5070328;28;21134;-66
2023/09/29 03:55:34;;;;;;;11.45;7.72;;;;;;;;;;5087107;28;20015;-67
2023/09/29 03:57:59;;;;;;;11.93;7.57;;;;;;;;;;5090938;27;20027;-65
2023/09/29 04:00:25;;;;;;;11.02;7.25;;;;;;;;;;5056404;28;20269;-65
2023/09/29 04:02:52;;;;;;;13.87;7.83;;;;;;;;;;5066008;28;20378;-66
2023/09/29 04:05:18;;;;;;;11.07;7.15;;;;;;;;;;5085790;28;20385;-67
2023/09/29 04:07:44;;;;;;;12.23;7.20;;;;;;;;;;5091512;28;20026;-68
2023/09/29 04:10:10;;;;;;;11.63;8.00;;;;;;;;;;5069770;28;20016;-64
2023/09/29 04:12:35;;;;;;;13.70;7.30;;;;;;;;;;5087218;27;20455;-66
2023/09/29 04:15:01;;;;;;;11.40;7.53;;;;;;;;;;5067204;28;20019;-66
2023/09/29 04:17:26;;;;;;;12.93;7.23;;;;;;;;;;5069188;28;20035;-66
2023/09/29 04:19:51;;;;;;;9.47;7.13;;;;;;;;;;5073842;28;20146;-66
2023/09/29 04:22:16;;;;;;;12.48;7.20;;;;;;;;;;5066141;28;20265;-67
2023/09/29 04:24:42;;;;;;;11.70;7.20;;;;;;;;;;5083652;28;20043;-64
2023/09/29 04:27:07;;;;;;;9.75;7.15;;;;;;;;;;5086934;27;20790;-66
2023/09/29 04:29:33;;;;;;;10.50;6.82;;;;;;;;;;5084569;28;20028;-67
2023/09/29 04:32:00;;;;;;;11.80;7.28;;;;;;;;;;5084715;28;20129;-66
2023/09/29 04:34:28;;;;;;;9.95;7.65;;;;;;;;;;5072748;28;20024;-66
2023/09/29 04:37:01;;;;;;;15.27;7.18;;;;;;;;;;5084887;28;20699;-64
2023/09/29 04:39:26;;;;;;;10.35;7.32;;;;;;;;;;5065051;28;20044;-69
2023/09/29 04:48:22;;;;;;;11.38;7.18;;;;;;;;;;5084813;28;20085;-66
2023/09/29 04:50:47;;;;;;;11.07;6.95;;;;;;;;;;5071803;28;20117;-65
2023/09/29 04:53:13;;;;;;;9.13;6.60;;;;;;;;;;5068563;28;20035;-65
2023/09/29 04:55:38;;;;;;;12.90;7.60;;;;;;;;;;5080721;28;20062;-65
2023/09/29 04:58:06;;;;;;;12.48;6.75;;;;;;;;;;5059390;28;20591;-67
2023/09/29 05:00:31;;;;;;;11.77;7.53;;;;;;;;;;5088902;28;20462;-63
2023/09/29 05:02:58;;;;;;;12.57;7.40;;;;;;;;;;5075695;28;20139;-64
2023/09/29 05:05:26;;;;;;;10.13;7.10;;;;;;;;;;5070885;28;20249;-66
2023/09/29 05:07:52;;;;;;;11.15;7.20;;;;;;;;;;5071686;28;20031;-67
2023/09/29 05:10:19;;;;;;;9.57;6.90;;;;;;;;;;5078114;28;20162;-66
2023/09/29 05:12:44;;;;;;;11.68;7.53;;;;;;;;;;5082185;28;20012;-66
2023/09/29 05:15:10;;;;;;;10.45;7.10;;;;;;;;;;5089472;28;20089;-65
2023/09/29 05:17:35;;;;;;;9.35;6.47;;;;;;;;;;5081452;28;20085;-66
2023/09/29 05:20:00;;;;;;;10.65;7.20;;;;;;;;;;5053549;28;20028;-63
2023/09/29 05:22:26;;;;;;;10.32;7.40;;;;;;;;;;5066272;28;20078;-61
2023/09/29 05:24:53;;;;;;;14.07;7.10;;;;;;;;;;5069362;28;20373;-62
2023/09/29 05:27:19;;;;;;;13.80;7.22;;;;;;;;;;5086612;28;20276;-61
2023/09/29 05:29:44;;;;;;;11.50;7.15;;;;;;;;;;5072746;28;20016;-62
2023/09/29 05:32:12;;;;;;;9.70;6.83;;;;;;;;;;5083826;28;20048;-64
2023/09/29 05:34:37;;;;;;;10.68;7.10;;;;;;;;;;5069987;28;20346;-61
2023/09/29 05:37:03;;;;;;;14.37;7.47;;;;;;;;;;5069875;28;20050;-63
2023/09/29 05:39:28;;;;;;;11.63;7.05;;;;;;;;;;5074871;28;20242;-61
2023/09/29 05:41:53;;;;;;;11.73;7.50;;;;;;;;;;5077398;28;20024;-62
2023/09/29 05:44:18;;;;;;;14.13;7.00;;;;;;;;;;5075950;28;20266;-62
2023/09/29 05:46:44;;;;;;;10.37;7.50;;;;;;;;;;5081740;28;20031;-61
2023/09/29 05:49:09;;;;;;;15.87;8.40;;;;;;;;;;5077785;28;20348;-61
2023/09/29 05:51:37;;;;;;;10.90;7.30;;;;;;;;;;5081699;28;20272;-60
2023/09/29 05:54:03;;;;;;;9.98;7.38;;;;;;;;;;5076112;28;20012;-62
2023/09/29 05:56:31;;;;;;;11.02;7.20;;;;;;;;;;5067704;28;20023;-61
2023/09/29 05:58:57;;;;;;;11.50;7.35;;;;;;;;;;5068651;28;20016;-61
2023/09/29 06:01:23;;;;;;;11.68;7.15;;;;;;;;;;5090462;27;20501;-61
2023/09/29 06:03:48;;;;;;;12.77;7.32;;;;;;;;;;5058381;28;20107;-61
2023/09/29 06:06:13;;;;;;;10.68;7.82;;;;;;;;;;5074808;28;20032;-61
2023/09/29 06:08:40;;;;;;;12.73;7.43;;;;;;;;;;5059686;28;20024;-61
2023/09/29 06:11:05;;;;;;;12.27;7.85;;;;;;;;;;5073153;28;20008;-61
2023/09/29 06:13:30;;;;;;;11.40;7.07;;;;;;;;;;5058485;28;20020;-62
2023/09/29 06:15:56;;;;;;;10.85;7.57;;;;;;;;;;5073052;28;20024;-61
2023/09/29 06:18:21;;;;;;;12.32;7.40;;;;;;;;;;5062747;28;20856;-60
2023/09/29 06:20:46;;;;;;;14.13;7.80;;;;;;;;;;5075374;28;20027;-62
2023/09/29 06:23:12;;;;;;;11.00;7.30;;;;;;;;;;5077445;28;20012;-61
2023/09/29 06:25:37;;;;;;;9.20;7.17;;;;;;;;;;5072676;28;20019;-61
2023/09/29 06:28:02;;;;;;;12.33;7.70;;;;;;;;;;5072336;28;20606;-61
2023/09/29 06:30:27;;;;;;;13.80;7.68;;;;;;;;;;5072110;28;20446;-62
2023/09/29 06:32:53;;;;;;;12.50;7.70;;;;;;;;;;5079144;28;20055;-62
2023/09/29 06:35:20;;;;;;;11.83;7.23;;;;;;;;;;5076035;28;20056;-60
2023/09/29 06:37:46;;;;;;;11.88;7.25;;;;;;;;;;5083611;28;20336;-61
2023/09/29 06:40:11;;;;;;;11.23;7.67;;;;;;;;;;5073745;28;20804;-61
2023/09/29 06:42:39;;;;;;;9.85;6.88;;;;;;;;;;5076510;28;20251;-62
2023/09/29 06:45:07;;;;;;;10.57;7.15;;;;;;;;;;5078172;28;20039;-62
2023/09/29 06:47:33;;;;;;;9.68;7.25;;;;;;;;;;5068296;28;20088;-60
2023/09/29 06:49:59;;;;;;;12.63;7.50;;;;;;;;;;5073951;28;20443;-60
2023/09/29 06:52:25;;;;;;;15.27;8.00;;;;;;;;;;5069847;28;20019;-60
2023/09/29 06:54:50;;;;;;;9.75;6.80;;;;;;;;;;5077186;28;20069;-62
2023/09/29 06:57:16;;;;;;;11.17;7.30;;;;;;;;;;5063381;28;20027;-62
2023/09/29 06:59:43;;;;;;;9.88;6.72;;;;;;;;;;5059576;28;20258;-63
2023/09/29 07:02:11;;;;;;;15.23;7.10;;;;;;;;;;5060993;28;20020;-62
2023/09/29 07:04:36;;;;;;;12.43;7.18;;;;;;;;;;5057728;28;20046;-62
2023/09/29 07:07:01;;;;;;;9.02;6.40;;;;;;;;;;5061413;28;20161;-62
2023/09/29 07:09:32;;;;;;;11.17;7.40;;;;;;;;;;5060317;28;20107;-62
2023/09/29 07:11:57;;;;;;;10.45;6.72;;;;;;;;;;5082242;28;20249;-64
2023/09/29 07:14:22;;;;;;;11.03;7.03;;;;;;;;;;5072277;28;20040;-62
2023/09/29 07:16:49;;;;;;;11.13;7.07;;;;;;;;;;5077114;28;20301;-62
2023/09/29 07:19:17;;;;;;;10.32;7.53;;;;;;;;;;5071016;28;20046;-62
2023/09/29 07:21:43;;;;;;;12.05;6.85;;;;;;;;;;5058438;28;20020;-62
2023/09/29 07:24:11;;;;;;;11.85;7.38;;;;;;;;;;5061923;28;20436;-62
2023/09/29 07:26:36;;;;;;;11.32;7.32;;;;;;;;;;5058629;28;20040;-62
2023/09/29 07:29:03;;;;;;;11.50;7.07;;;;;;;;;;5066380;28;20103;-62
2023/09/29 07:31:38;;;;;;;11.45;7.22;;;;;;;;;;5073789;28;20269;-62
2023/09/29 07:34:06;;;;;;;12.43;7.03;;;;;;;;;;5070952;28;20543;-62
2023/09/29 07:36:35;;;;;;;12.85;7.95;;;;;;;;;;5055219;28;20425;-63
2023/09/29 07:39:00;;;;;;;10.98;6.88;;;;;;;;;;5054068;28;20020;-63
2023/09/29 07:41:26;;;;;;;10.90;7.25;;;;;;;;;;5077319;28;20025;-62
2023/09/29 07:43:51;;;;;;;10.20;7.35;;;;;;;;;;5060083;28;20024;-62
2023/09/29 07:46:16;;;;;;;11.30;8.03;;;;;;;;;;5073413;28;20101;-63
2023/09/29 07:48:42;;;;;;;12.20;7.20;;;;;;;;;;5067005;28;20341;-62
2023/09/29 07:51:07;;;;;;;12.23;6.95;;;;;;;;;;5056205;28;20020;-62
2023/09/29 07:53:33;;;;;;;13.77;8.57;;;;;;;;;;5072124;28;20438;-62
2023/09/29 07:55:59;;;;;;;14.75;8.65;;;;;;;;;;5076363;28;20008;-62
2023/09/29 07:58:24;;;;;;;9.93;7.70;;;;;;;;;;5081330;28;20108;-62
2023/09/29 08:00:49;;;;;;;11.27;7.60;;;;;;;;;;5073946;28;20107;-62
2023/09/29 08:03:14;;;;;;;12.50;8.18;;;;;;;;;;5061551;28;20025;-62
2023/09/29 08:05:42;;;;;;;13.43;7.35;;;;;;;;;;5066198;28;20016;-62
2023/09/29 08:08:09;;;;;;;11.40;7.55;;;;;;;;;;5076199;28;20546;-62
2023/09/29 08:10:35;;;;;;;11.85;7.15;;;;;;;;;;5076265;28;20020;-62
2023/09/29 08:13:00;;;;;;;11.55;7.60;;;;;;;;;;5046740;28;20029;-61
2023/09/29 08:15:27;;;;;;;9.27;7.00;;;;;;;;;;5081990;28;20016;-62
2023/09/29 08:17:53;;;;;;;9.85;6.53;;;;;;;;;;5055835;28;20361;-64
2023/09/29 08:20:21;;;;;;;11.87;6.60;;;;;;;;;;5074418;28;20430;-61
2023/09/29 08:22:46;;;;;;;14.23;6.53;;;;;;;;;;5068333;28;20247;-62
2023/09/29 08:25:12;;;;;;;10.15;6.72;;;;;;;;;;5057420;28;20442;-63
2023/09/29 08:27:40;;;;;;;12.18;7.47;;;;;;;;;;5072617;28;20030;-63
2023/09/29 08:30:06;;;;;;;11.45;7.35;;;;;;;;;;5072050;28;20678;-62
2023/09/29 08:32:32;;;;;;;9.27;7.25;;;;;;;;;;5064540;28;20051;-63
2023/09/29 08:34:58;;;;;;;11.18;7.25;;;;;;;;;;5059439;28;20131;-62
2023/09/29 08:37:23;;;;;;;10.93;7.13;;;;;;;;;;5046616;28;20154;-62
2023/09/29 08:39:50;;;;;;;10.90;7.15;;;;;;;;;;5066036;28;20115;-63
2023/09/29 08:42:35;;;;;;;10.90;7.30;;;;;;;;;;5056959;28;20024;-63
2023/09/29 08:45:01;;;;;;;10.38;6.78;;;;;;;;;;5053384;28;20012;-62
2023/09/29 08:47:30;;;;;;;8.48;6.32;;;;;;;;;;5090174;28;20078;-63
2023/09/29 08:49:59;;;;;;;10.00;6.90;;;;;;;;;;5052558;28;20834;-63
2023/09/29 08:52:27;;;;;;;11.43;6.60;;;;;;;;;;5071124;28;20133;-62
2023/09/29 08:54:53;;;;;;;13.35;6.65;;;;;;;;;;5064887;28;20581;-62
2023/09/29 08:57:21;;;;;;;11.43;6.53;;;;;;;;;;5060967;28;20021;-62
2023/09/29 08:59:48;;;;;;;13.48;7.35;;;;;;;;;;5067507;28;20012;-63
2023/09/29 09:02:13;;;;;;;15.27;7.00;;;;;;;;;;5082219;28;20018;-61
2023/09/29 09:04:38;;;;;;;12.73;6.78;;;;;;;;;;5070139;28;20021;-63
2023/09/29 09:07:04;;;;;;;16.13;7.03;;;;;;;;;;5072432;28;20062;-62
2023/09/29 09:09:35;;;;;;;13.63;7.45;;;;;;;;;;5056125;28;20262;-62
2023/09/29 09:12:03;;;;;;;11.95;7.18;;;;;;;;;;5070122;28;20471;-62
2023/09/29 09:14:40;;;;;;;10.18;6.53;;;;;;;;;;5056671;28;20034;-62
2023/09/29 09:17:07;;;;;;;10.88;6.43;;;;;;;;;;5080102;28;20109;-62
2023/09/29 09:19:41;;;;;;;10.15;6.60;;;;;;;;;;5058200;28;20027;-63
2023/09/29 09:22:12;;;;;;;10.25;6.30;;;;;;;;;;5070370;28;20008;-62
2023/09/29 09:24:37;;;;;;;10.32;6.60;;;;;;;;;;5079484;28;20037;-63
2023/09/29 09:27:02;;;;;;;11.73;6.60;;;;;;;;;;5079975;28;20020;-62
2023/09/29 09:29:28;;;;;;;14.20;6.45;;;;;;;;;;5061420;28;20120;-63
2023/09/29 09:31:56;;;;;;;9.23;6.30;;;;;;;;;;5074643;28;20023;-62
2023/09/29 09:34:33;;;;;;;10.23;6.30;;;;;;;;;;5079095;28;20039;-62
2023/09/29 09:36:58;;;;;;;10.05;6.03;;;;;;;;;;5073943;28;20027;-62
2023/09/29 09:39:24;;;;;;;11.45;5.60;;;;;;;;;;5072016;28;20031;-62
2023/09/29 09:41:53;;;;;;;11.68;5.90;;;;;;;;;;5067973;28;20378;-62
2023/09/29 09:44:20;;;;;;;9.00;5.93;;;;;;;;;;5077561;28;20052;-62
2023/09/29 09:46:48;;;;;;;10.85;5.70;;;;;;;;;;5064646;28;20020;-62
2023/09/29 09:49:17;;;;;;;10.60;6.00;;;;;;;;;;5086902;28;20079;-62
2023/09/29 09:51:47;;;;;;;10.30;5.78;;;;;;;;;;5058568;28;20324;-62
2023/09/29 09:54:13;;;;;;;9.57;6.30;;;;;;;;;;5078058;28;20453;-62
2023/09/29 09:57:08;;;;;;;7.43;5.63;;;;;;;;;;5069102;28;20039;-63
2023/09/29 09:59:34;;;;;;;8.73;5.57;;;;;;;;;;5064679;28;20037;-62
2023/09/29 10:02:03;;;;;;;10.43;5.80;;;;;;;;;;5081651;28;20662;-62
2023/09/29 10:04:31;;;;;;;;;;;;;;;;;;5062203;28;20140;-62
2023/09/29 10:06:57;;;;;;;10.55;5.60;;;;;;;;;;5084700;28;19958;-62
2023/09/29 10:09:22;;;;;;;9.48;5.72;;;;;;;;;;5059501;28;20028;-62
2023/09/29 10:11:57;;;;;;;9.20;5.70;;;;;;;;;;5077137;28;20020;-63
2023/09/29 10:14:24;;;;;;;11.82;5.78;;;;;;;;;;5068416;28;20268;-62
2023/09/29 10:17:00;;;;;;;9.80;6.00;;;;;;;;;;5066402;28;20070;-63
2023/09/29 10:19:33;;;;;;;7.85;5.72;;;;;;;;;;5069215;28;20051;-62
2023/09/29 10:22:00;;;;;;;11.07;5.40;;;;;;;;;;5054039;28;20348;-62
2023/09/29 10:24:28;;;;;;;9.80;5.95;;;;;;;;;;5071572;28;20085;-62
2023/09/29 10:26:58;;;;;;;12.50;5.75;;;;;;;;;;5069990;28;20703;-62
2023/09/29 10:29:25;;;;;;;12.02;6.07;;;;;;;;;;5082838;28;20577;-63
2023/09/29 10:31:53;;;;;;;11.88;6.20;;;;;;;;;;5074107;28;20439;-60
2023/09/29 10:34:21;;;;;;;9.57;5.93;;;;;;;;;;5060925;28;20881;-63
2023/09/29 10:36:52;;;;;;;9.43;5.85;;;;;;;;;;5087476;28;20763;-62
2023/09/29 10:39:23;;;;;;;9.90;6.30;;;;;;;;;;5075932;28;20028;-64
2023/09/29 10:41:56;;;;;;;8.65;6.15;;;;;;;;;;5056925;28;20046;-63
2023/09/29 10:44:21;;;;;;;10.57;5.90;;;;;;;;;;5066607;28;20025;-63
2023/09/29 10:46:50;;;;;;;11.40;6.07;;;;;;;;;;5074580;28;21360;-63
2023/09/29 10:49:15;;;;;;;9.10;6.17;;;;;;;;;;5074459;28;20289;-64
2023/09/29 10:51:40;;;;;;;10.38;6.88;;;;;;;;;;5063550;28;20109;-64
2023/09/29 10:54:07;;;;;;;8.73;5.85;;;;;;;;;;5074662;28;20024;-64
2023/09/29 10:56:33;;;;;;;12.10;5.97;;;;;;;;;;5060866;28;20020;-62
2023/09/29 10:58:59;;;;;;;11.45;6.60;;;;;;;;;;5069989;28;20020;-61
2023/09/29 11:01:30;;;;;;;13.00;7.10;;;;;;;;;;5059886;28;20506;-63
2023/09/29 11:03:56;;;;;;;9.65;6.88;;;;;;;;;;5076661;28;20470;-63
2023/09/29 11:06:22;;;;;;;11.50;6.63;;;;;;;;;;5053726;28;20433;-63
2023/09/29 11:08:53;;;;;;;10.63;7.15;;;;;;;;;;5091440;28;20016;-64
2023/09/29 11:11:18;;;;;;;11.25;7.47;;;;;;;;;;5077099;28;20093;-65
2023/09/29 11:13:51;;;;;;;11.80;7.47;;;;;;;;;;5058119;28;20028;-64
2023/09/29 11:16:17;;;;;;;19.77;7.68;;;;;;;;;;5073681;28;20268;-62
2023/09/29 11:18:45;;;;;;;14.15;6.95;;;;;;;;;;5068758;28;20032;-62
2023/09/29 11:21:11;;;;;;;11.25;7.57;;;;;;;;;;5072811;28;20683;-61
2023/09/29 11:23:47;;;;;;;10.25;7.15;;;;;;;;;;5058205;28;20025;-64
2023/09/29 11:26:15;;;;;;;10.23;7.68;;;;;;;;;;5076639;28;20008;-63
2023/09/29 11:28:51;;;;;;;12.52;7.82;;;;;;;;;;5058265;28;20023;-64
2023/09/29 11:31:17;;;;;;;11.85;7.25;;;;;;;;;;5071308;28;20030;-63
2023/09/29 11:33:44;;;;;;;10.73;7.05;;;;;;;;;;5060824;28;20245;-63
2023/09/29 11:36:21;;;;;;;11.63;7.50;;;;;;;;;;5060418;28;20008;-62
2023/09/29 11:38:46;;;;;;;11.88;7.65;;;;;;;;;;5049406;28;20070;-63
2023/09/29 11:41:12;;;;;;;11.17;7.40;;;;;;;;;;5066532;28;20020;-61
2023/09/29 11:43:40;;;;;;;12.60;7.18;;;;;;;;;;5068619;28;20278;-63
2023/09/29 11:46:06;;;;;;;12.15;6.97;;;;;;;;;;5070342;28;20016;-63
2023/09/29 11:48:31;;;;;;;14.40;7.20;;;;;;;;;;5074367;28;20051;-64
2023/09/29 11:50:56;;;;;;;11.32;6.72;;;;;;;;;;5058992;28;20843;-63
2023/09/29 11:53:22;;;;;;;10.53;7.27;;;;;;;;;;5053067;28;20012;-64
2023/09/29 11:55:49;;;;;;;11.93;7.57;;;;;;;;;;5054772;28;20493;-63
2023/09/29 11:58:15;;;;;;;10.57;7.53;;;;;;;;;;5063163;28;20549;-64
2023/09/29 12:00:41;;;;;;;10.30;7.18;;;;;;;;;;5057283;28;20016;-60
2023/09/29 12:03:10;;;;;;;9.85;7.40;;;;;;;;;;5046302;28;20569;-63
2023/09/29 12:05:40;;;;;;;8.95;6.95;;;;;;;;;;5071221;28;20103;-63
2023/09/29 12:08:05;;;;;;;12.48;7.88;;;;;;;;;;5069206;28;20024;-62
2023/09/29 12:10:33;;;;;;;14.02;7.55;;;;;;;;;;5055645;28;20016;-63
2023/09/29 12:12:59;;;;;;;11.88;7.30;;;;;;;;;;5073773;28;20570;-64
2023/09/29 12:15:24;;;;;;;11.32;7.78;;;;;;;;;;5049276;28;20026;-63
2023/09/29 12:17:50;;;;;;;11.07;7.47;;;;;;;;;;5073062;28;20704;-64
2023/09/29 12:20:16;;;;;;;12.57;7.85;;;;;;;;;;5061479;28;20016;-61
2023/09/29 12:22:44;;;;;;;12.25;7.82;;;;;;;;;;5057766;28;20069;-61
2023/09/29 12:25:15;;;;;;;12.32;7.70;;;;;;;;;;5068690;28;20185;-61
2023/09/29 12:27:41;;;;;;;11.85;7.45;;;;;;;;;;5076824;28;20522;-61
2023/09/29 12:30:12;;;;;;;11.75;7.45;;;;;;;;;;5062852;28;20058;-64
2023/09/29 12:32:39;;;;;;;11.38;7.63;;;;;;;;;;5079535;28;20050;-61
2023/09/29 12:35:05;;;;;;;12.00;7.97;;;;;;;;;;5051359;28;20016;-61
2023/09/29 12:37:33;;;;;;;13.55;8.18;;;;;;;;;;5067714;28;20442;-64
2023/09/29 12:39:58;;;;;;;11.00;7.75;;;;;;;;;;5065924;28;20024;-63
2023/09/29 12:42:25;;;;;;;10.90;7.83;;;;;;;;;;5055714;28;20027;-63
2023/09/29 12:44:51;;;;;;;12.20;8.10;;;;;;;;;;5067918;28;20279;-61
2023/09/29 12:47:16;;;;;;;12.00;8.20;;;;;;;;;;5070997;28;20024;-61
2023/09/29 12:49:41;;;;;;;11.30;7.60;;;;;;;;;;5070590;28;20633;-61
2023/09/29 12:52:09;;;;;;;14.87;8.40;;;;;;;;;;5089490;28;20253;-61
2023/09/29 12:54:45;;;;;;;10.70;8.15;;;;;;;;;;5093318;27;20253;-61
2023/09/29 12:57:10;;;;;;;12.32;8.30;;;;;;;;;;5077565;27;20028;-61
2023/09/29 12:59:36;;;;;;;11.23;7.97;;;;;;;;;;5098040;27;20360;-64
2023/09/29 13:02:08;;;;;;;11.68;8.50;;;;;;;;;;5096067;27;20102;-61
2023/09/29 13:04:33;;;;;;;10.93;7.75;;;;;;;;;;5087713;27;20035;-63
2023/09/29 13:07:01;;;;;;;12.32;7.78;;;;;;;;;;5096831;27;20743;-61
2023/09/29 13:09:27;;;;;;;10.75;8.43;;;;;;;;;;5070359;27;20097;-61
2023/09/29 13:11:52;;;;;;;13.57;7.20;;;;;;;;;;5070811;27;20302;-62
2023/09/29 13:14:18;;;;;;;12.95;7.45;;;;;;;;;;5076438;27;20020;-63
2023/09/29 13:16:43;;;;;;;12.27;7.60;;;;;;;;;;5094183;27;20035;-61
2023/09/29 13:19:08;;;;;;;12.45;8.35;;;;;;;;;;5097311;27;20028;-64
2023/09/29 13:21:34;;;;;;;11.23;8.33;;;;;;;;;;5083278;27;20119;-60
2023/09/29 13:24:04;;;;;;;10.77;7.83;;;;;;;;;;5092515;27;21298;-61
2023/09/29 13:26:30;;;;;;;11.38;7.90;;;;;;;;;;5099016;27;20276;-63
2023/09/29 13:28:55;;;;;;;13.10;7.50;;;;;;;;;;5097020;27;20027;-61
2023/09/29 13:31:26;;;;;;;14.40;8.37;;;;;;;;;;5091558;27;20094;-63
2023/09/29 13:33:51;;;;;;;10.68;7.55;;;;;;;;;;5104794;27;20394;-61
2023/09/29 13:36:17;;;;;;;12.27;7.68;;;;;;;;;;5075033;28;20073;-61
2023/09/29 13:38:43;;;;;;;11.52;8.15;;;;;;;;;;5089192;27;20080;-63
2023/09/29 13:41:08;;;;;;;11.20;7.60;;;;;;;;;;5093924;27;20015;-63
2023/09/29 13:43:34;;;;;;;10.50;7.75;;;;;;;;;;5073460;28;20020;-63
2023/09/29 13:45:59;;;;;;;11.17;7.83;;;;;;;;;;5078201;28;20030;-62
2023/09/29 13:48:24;;;;;;;12.70;8.30;;;;;;;;;;5077023;28;20503;-61
2023/09/29 13:50:51;;;;;;;11.53;7.40;;;;;;;;;;5074063;28;20012;-61
2023/09/29 13:53:20;;;;;;;11.57;7.22;;;;;;;;;;5065861;28;20034;-61
2023/09/29 13:55:46;;;;;;;9.90;7.63;;;;;;;;;;5051674;28;20123;-61
2023/09/29 13:58:11;;;;;;;11.43;7.40;;;;;;;;;;5054397;28;20021;-62
2023/09/29 14:00:39;;;;;;;11.80;7.50;;;;;;;;;;5067785;28;20027;-62
2023/09/29 14:03:04;;;;;;;10.25;7.90;;;;;;;;;;5074476;28;20032;-62
2023/09/29 14:05:36;;;;;;;13.25;7.93;;;;;;;;;;5073692;28;20397;-61
2023/09/29 14:08:01;;;;;;;11.05;7.43;;;;;;;;;;5067513;28;20038;-62
2023/09/29 14:10:29;;;;;;;13.50;7.55;;;;;;;;;;5072711;28;20191;-62
2023/09/29 14:12:54;;;;;;;11.20;7.18;;;;;;;;;;5070532;28;20530;-62
2023/09/29 14:15:22;;;;;;;11.77;7.77;;;;;;;;;;5054166;28;20032;-61
2023/09/29 14:17:47;;;;;;;12.57;6.70;;;;;;;;;;5070071;28;20031;-62
2023/09/29 14:20:13;;;;;;;12.73;7.40;;;;;;;;;;5062284;28;20040;-62
2023/09/29 14:22:38;;;;;;;10.65;6.95;;;;;;;;;;5055447;28;20731;-63
2023/09/29 14:25:04;;;;;;;10.65;6.80;;;;;;;;;;5045233;28;20058;-61
2023/09/29 14:27:29;;;;;;;16.20;7.30;;;;;;;;;;5066073;28;20040;-61
2023/09/29 14:29:56;;;;;;;10.20;7.30;;;;;;;;;;5076261;28;20126;-60
2023/09/29 14:32:22;;;;;;;11.60;7.20;;;;;;;;;;5073461;28;20467;-60
2023/09/29 14:34:47;;;;;;;15.23;7.03;;;;;;;;;;5073205;28;20031;-59
2023/09/29 14:37:12;;;;;;;12.67;7.80;;;;;;;;;;5051323;28;20471;-60